< VanCam Weather - WU Station History
^^
Station Historical Data
Daily Summary for February 14, 2018 Units:  Both    English   Metric
« Previous Day
Next Day »
Daily Weekly Monthly Yearly Custom
  High: Low: Average:
Temperature: 43.6 °F /  6.4 °C 30.6 °F /  -0.8 °C 35.8 °F /  2.1 °C
Dew Point: 41.3 °F /  5.2 °C 29.9 °F /  -1.2 °C 34.5 °F /  1.4 °C
Humidity: 97% 81% 95%
Wind Speed: 8.1mph /  13km/h - 1.1mph /  1.8km/h
Wind Gust: 8.1mph /  13km/h - -
Wind- - ESE
Pressure: 30.33 in /  1027 hPa 30.04 in /  1017.2 hPa -
Precipitation: 0.63 in /  16 mm    
Historical Graphs
 
 
Tabular Data for February 14, 2018
Time Temperature Dew Point Pressure Wind Wind Speed Wind Gust Humidity Rainfall Rate (Hourly) solar Conditions
00:01 36.2 °F /  2.3 °C 30.9 °F /  -0.6 °C 30.09in /  1018.8hPa South 2.3mph /  3.7km/h 2.3mph /  3.7km/h 81% 0.00in /  0mm WeatherDisplay:10.37 W/m2 CLR
00:06 36.2 °F /  2.3 °C 31.2 °F /  -0.4 °C 30.09in /  1018.8hPa WNW 3.5mph /  5.6km/h 3.5mph /  5.6km/h 82% 0.00in /  0mm WeatherDisplay:10.37 W/m2 CLR
00:11 36.2 °F /  2.3 °C 31.5 °F /  -0.3 °C 30.09in /  1018.8hPa WNW 1.2mph /  1.9km/h 1.2mph /  1.9km/h 83% 0.00in /  0mm WeatherDisplay:10.37 W/m2 CLR
00:16 36.2 °F /  2.3 °C 31.8 °F /  -0.1 °C 30.09in /  1018.8hPa WNW 1.2mph /  1.9km/h 1.2mph /  1.9km/h 84% 0.00in /  0mm WeatherDisplay:10.37 W/m2 CLR
00:21 36.2 °F /  2.3 °C 32.1 °F /  0.1 °C 30.09in /  1018.8hPa WSW 2.3mph /  3.7km/h 2.3mph /  3.7km/h 85% 0.00in /  0mm WeatherDisplay:10.37 W/m2 CLR
00:26 36.1 °F /  2.3 °C 32.3 °F /  0.2 °C 30.09in /  1018.8hPa SSE 2.3mph /  3.7km/h 2.3mph /  3.7km/h 86% 0.01in /  0.25mm WeatherDisplay:10.37 W/m2 RA
00:31 36.1 °F /  2.3 °C 32.9 °F /  0.5 °C 30.09in /  1018.8hPa SSE 2.3mph /  3.7km/h 2.3mph /  3.7km/h 88% 0.02in /  0.51mm WeatherDisplay:10.37 W/m2 RA
00:36 36.0 °F /  2.2 °C 33.4 °F /  0.8 °C 30.09in /  1018.8hPa ESE 2.3mph /  3.7km/h 2.3mph /  3.7km/h 90% 0.03in /  0.76mm WeatherDisplay:10.37 W/m2 RA
00:41 36.0 °F /  2.2 °C 33.6 °F /  0.9 °C 30.09in /  1018.8hPa ENE 3.5mph /  5.6km/h 3.5mph /  5.6km/h 91% 0.03in /  0.76mm WeatherDisplay:10.37 W/m2 RA
00:46 35.9 °F /  2.2 °C 33.5 °F /  0.8 °C 30.09in /  1018.8hPa ENE 1.2mph /  1.9km/h 1.2mph /  1.9km/h 91% 0.04in /  1.02mm WeatherDisplay:10.37 W/m2 RA
00:51 35.9 °F /  2.2 °C 33.8 °F /  1 °C 30.09in /  1018.8hPa ENE 2.3mph /  3.7km/h 2.3mph /  3.7km/h 92% 0.05in /  1.27mm WeatherDisplay:10.37 W/m2 RA
00:56 35.9 °F /  2.2 °C 33.8 °F /  1 °C 30.09in /  1018.8hPa ENE 1.2mph /  1.9km/h 1.2mph /  1.9km/h 92% 0.06in /  1.52mm WeatherDisplay:10.37 W/m2 RA
01:01 35.8 °F /  2.1 °C 33.7 °F /  0.9 °C 30.09in /  1018.8hPa ENE 1.2mph /  1.9km/h 1.2mph /  1.9km/h 92% 0.07in /  1.78mm WeatherDisplay:10.37 W/m2 RA
01:06 35.8 °F /  2.1 °C 34.0 °F /  1.1 °C 30.08in /  1018.5hPa ENE 1.2mph /  1.9km/h 1.2mph /  1.9km/h 93% 0.09in /  2.29mm WeatherDisplay:10.37 W/m2 RA
01:12 35.7 °F /  2.1 °C 33.9 °F /  1.1 °C 30.08in /  1018.5hPa ESE 2.3mph /  3.7km/h   93% 0.09in /  2.29mm WeatherDisplay:10.37 W/m2 RA
01:17 35.9 °F /  2.2 °C 34.3 °F /  1.3 °C 30.08in /  1018.5hPa East 1.2mph /  1.9km/h 1.2mph /  1.9km/h 94% 0.10in /  2.54mm WeatherDisplay:10.37 W/m2 RA
01:22 35.9 °F /  2.2 °C 34.1 °F /  1.2 °C 30.08in /  1018.5hPa East 2.3mph /  3.7km/h 2.3mph /  3.7km/h 93% 0.12in /  3.05mm WeatherDisplay:10.37 W/m2 RA
01:27 35.9 °F /  2.2 °C 34.1 °F /  1.2 °C 30.08in /  1018.5hPa ESE 2.3mph /  3.7km/h 2.3mph /  3.7km/h 93% 0.12in /  3.05mm WeatherDisplay:10.37 W/m2 RA
01:32 35.7 °F /  2.1 °C 33.9 °F /  1.1 °C 30.08in /  1018.5hPa ESE 3.5mph /  5.6km/h 3.5mph /  5.6km/h 93% 0.12in /  3.05mm WeatherDisplay:10.37 W/m2 RA
01:37 35.4 °F /  1.9 °C 33.6 °F /  0.9 °C 30.08in /  1018.5hPa East 2.0mph /  3.2km/h 2.0mph /  3.2km/h 93% 0.12in /  3.05mm WeatherDisplay:10.37 W/m2 RA
01:42 35.0 °F /  1.7 °C 32.9 °F /  0.5 °C 30.08in /  1018.5hPa ESE 3.5mph /  5.6km/h 3.5mph /  5.6km/h 92% 0.11in /  2.79mm WeatherDisplay:10.37 W/m2 RA
01:47 34.6 °F /  1.4 °C 32.5 °F /  0.3 °C 30.08in /  1018.5hPa ESE 2.3mph /  3.7km/h 2.3mph /  3.7km/h 92% 0.11in /  2.79mm WeatherDisplay:10.37 W/m2
01:52 34.3 °F /  1.3 °C 32.5 °F /  0.3 °C 30.09in /  1018.8hPa ESE 1.2mph /  1.9km/h 1.2mph /  1.9km/h 93% 0.10in /  2.54mm WeatherDisplay:10.37 W/m2
01:57 34.1 °F /  1.2 °C 32.3 °F /  0.2 °C 30.09in /  1018.8hPa East 2.3mph /  3.7km/h 2.3mph /  3.7km/h 93% 0.10in /  2.54mm WeatherDisplay:10.37 W/m2 RA
02:02 33.9 °F /  1.1 °C 32.1 °F /  0.1 °C 30.09in /  1018.8hPa East 2.3mph /  3.7km/h 2.3mph /  3.7km/h 93% 0.09in /  2.29mm WeatherDisplay:10.37 W/m2 RA
02:07 33.7 °F /  0.9 °C 31.9 °F /  -0.1 °C 30.09in /  1018.8hPa ESE 3.5mph /  5.6km/h 3.5mph /  5.6km/h 93% 0.07in /  1.78mm WeatherDisplay:10.37 W/m2
02:12 33.5 °F /  0.8 °C 32.0 °F /  0 °C 30.08in /  1018.5hPa ESE 3.5mph /  5.6km/h 3.5mph /  5.6km/h 94% 0.07in /  1.78mm WeatherDisplay:10.37 W/m2
02:17 33.4 °F /  0.8 °C 31.9 °F /  -0.1 °C 30.08in /  1018.5hPa East 1.2mph /  1.9km/h 1.2mph /  1.9km/h 94% 0.06in /  1.52mm WeatherDisplay:10.37 W/m2
02:22 33.3 °F /  0.7 °C 31.8 °F /  -0.1 °C 30.08in /  1018.5hPa East 2.3mph /  3.7km/h 2.3mph /  3.7km/h 94% 0.04in /  1.02mm WeatherDisplay:10.37 W/m2
02:27 33.3 °F /  0.7 °C 31.8 °F /  -0.1 °C 30.08in /  1018.5hPa East 2.3mph /  3.7km/h 2.3mph /  3.7km/h 94% 0.03in /  0.76mm WeatherDisplay:10.37 W/m2
02:32 33.2 °F /  0.7 °C 31.7 °F /  -0.2 °C 30.08in /  1018.5hPa East 3.5mph /  5.6km/h 3.5mph /  5.6km/h 94% 0.02in /  0.51mm WeatherDisplay:10.37 W/m2
02:37 33.2 °F /  0.7 °C 31.9 °F /  -0.1 °C 30.07in /  1018.2hPa ESE 2.3mph /  3.7km/h 2.3mph /  3.7km/h 95% 0.01in /  0.25mm WeatherDisplay:10.37 W/m2
02:42 33.1 °F /  0.6 °C 31.8 °F /  -0.1 °C 30.07in /  1018.2hPa East 1.2mph /  1.9km/h 1.2mph /  1.9km/h 95% 0.01in /  0.25mm WeatherDisplay:10.37 W/m2
02:47 33.2 °F /  0.7 °C 31.9 °F /  -0.1 °C 30.08in /  1018.5hPa ESE 3.5mph /  5.6km/h 3.5mph /  5.6km/h 95% 0.01in /  0.25mm WeatherDisplay:10.37 W/m2
02:52 33.2 °F /  0.7 °C 31.9 °F /  -0.1 °C 30.08in /  1018.5hPa ESE 1.2mph /  1.9km/h   95% 0.02in /  0.51mm WeatherDisplay:10.37 W/m2 RA
02:57 33.1 °F /  0.6 °C 31.8 °F /  -0.1 °C 30.08in /  1018.5hPa Calm     95% 0.01in /  0.25mm WeatherDisplay:10.37 W/m2
03:02 33.1 °F /  0.6 °C 31.8 °F /  -0.1 °C 30.08in /  1018.5hPa ESE 1.2mph /  1.9km/h 1.2mph /  1.9km/h 95% 0.01in /  0.25mm WeatherDisplay:10.37 W/m2
03:07 33.0 °F /  0.6 °C 31.7 °F /  -0.2 °C 30.08in /  1018.5hPa Calm     95% 0.01in /  0.25mm WeatherDisplay:10.37 W/m2
03:12 33.0 °F /  0.6 °C 31.7 °F /  -0.2 °C 30.08in /  1018.5hPa ESE 1.2mph /  1.9km/h   95% 0.01in /  0.25mm WeatherDisplay:10.37 W/m2
03:17 32.9 °F /  0.5 °C 31.6 °F /  -0.2 °C 30.08in /  1018.5hPa Calm     95% 0.01in /  0.25mm WeatherDisplay:10.37 W/m2
03:22 32.8 °F /  0.4 °C 31.5 °F /  -0.3 °C 30.08in /  1018.5hPa Calm     95% 0.01in /  0.25mm WeatherDisplay:10.37 W/m2
03:27 32.8 °F /  0.4 °C 31.5 °F /  -0.3 °C 30.08in /  1018.5hPa Calm     95% 0.01in /  0.25mm WeatherDisplay:10.37 W/m2
03:32 32.8 °F /  0.4 °C 31.5 °F /  -0.3 °C 30.08in /  1018.5hPa Calm     95% 0.01in /  0.25mm WeatherDisplay:10.37 W/m2
03:37 32.8 °F /  0.4 °C 31.5 °F /  -0.3 °C 30.08in /  1018.5hPa Calm     95% 0.01in /  0.25mm WeatherDisplay:10.37 W/m2
03:42 32.8 °F /  0.4 °C 31.5 °F /  -0.3 °C 30.08in /  1018.5hPa Calm     95% 0.01in /  0.25mm WeatherDisplay:10.37 W/m2
03:47 32.8 °F /  0.4 °C 31.5 °F /  -0.3 °C 30.07in /  1018.2hPa Calm     95% 0.00in /  0mm WeatherDisplay:10.37 W/m2
03:52 32.8 °F /  0.4 °C 31.5 °F /  -0.3 °C 30.07in /  1018.2hPa Calm     95% 0.00in /  0mm WeatherDisplay:10.37 W/m2 CLR
03:57 32.8 °F /  0.4 °C 31.5 °F /  -0.3 °C 30.07in /  1018.2hPa East 1.2mph /  1.9km/h 1.2mph /  1.9km/h 95% 0.01in /  0.25mm WeatherDisplay:10.37 W/m2 RA
04:02 32.8 °F /  0.4 °C 31.8 °F /  -0.1 °C 30.07in /  1018.2hPa East 1.2mph /  1.9km/h 1.2mph /  1.9km/h 96% 0.01in /  0.25mm WeatherDisplay:10.37 W/m2 RA
04:07 32.8 °F /  0.4 °C 31.8 °F /  -0.1 °C 30.07in /  1018.2hPa Calm     96% 0.01in /  0.25mm WeatherDisplay:10.37 W/m2
04:12 32.8 °F /  0.4 °C 31.8 °F /  -0.1 °C 30.07in /  1018.2hPa East 2.0mph /  3.2km/h 2.0mph /  3.2km/h 96% 0.01in /  0.25mm WeatherDisplay:10.37 W/m2
04:17 32.9 °F /  0.5 °C 31.9 °F /  -0.1 °C 30.06in /  1017.8hPa East 1.2mph /  1.9km/h 1.2mph /  1.9km/h 96% 0.01in /  0.25mm WeatherDisplay:10.37 W/m2
04:22 32.9 °F /  0.5 °C 31.9 °F /  -0.1 °C 30.07in /  1018.2hPa Calm     96% 0.01in /  0.25mm WeatherDisplay:10.37 W/m2
04:27 32.9 °F /  0.5 °C 31.9 °F /  -0.1 °C 30.06in /  1017.8hPa Calm     96% 0.01in /  0.25mm WeatherDisplay:10.37 W/m2
04:32 33.0 °F /  0.6 °C 32.0 °F /  0 °C 30.06in /  1017.8hPa Calm     96% 0.01in /  0.25mm WeatherDisplay:10.37 W/m2
04:37 33.0 °F /  0.6 °C 32.0 °F /  0 °C 30.07in /  1018.2hPa Calm     96% 0.01in /  0.25mm WeatherDisplay:10.37 W/m2
04:42 33.0 °F /  0.6 °C 32.0 °F /  0 °C 30.06in /  1017.8hPa Calm     96% 0.02in /  0.51mm WeatherDisplay:10.37 W/m2 RA
04:47 33.1 °F /  0.6 °C 32.1 °F /  0.1 °C 30.06in /  1017.8hPa Calm     96% 0.02in /  0.51mm WeatherDisplay:10.37 W/m2 RA
04:52 33.1 °F /  0.6 °C 32.1 °F /  0.1 °C 30.06in /  1017.8hPa Calm     96% 0.02in /  0.51mm WeatherDisplay:10.37 W/m2
04:57 33.0 °F /  0.6 °C 32.0 °F /  0 °C 30.06in /  1017.8hPa Calm     96% 0.01in /  0.25mm WeatherDisplay:10.37 W/m2
05:02 33.0 °F /  0.6 °C 32.0 °F /  0 °C 30.06in /  1017.8hPa Calm     96% 0.01in /  0.25mm WeatherDisplay:10.37 W/m2
05:07 33.0 °F /  0.6 °C 32.0 °F /  0 °C 30.06in /  1017.8hPa Calm     96% 0.01in /  0.25mm WeatherDisplay:10.37 W/m2
05:12 33.0 °F /  0.6 °C 32.0 °F /  0 °C 30.06in /  1017.8hPa Calm     96% 0.01in /  0.25mm WeatherDisplay:10.37 W/m2
05:17 33.0 °F /  0.6 °C 32.0 °F /  0 °C 30.06in /  1017.8hPa Calm     96% 0.02in /  0.51mm WeatherDisplay:10.37 W/m2 RA
05:22 33.1 °F /  0.6 °C 32.1 °F /  0.1 °C 30.06in /  1017.8hPa Calm     96% 0.02in /  0.51mm WeatherDisplay:10.37 W/m2 RA
05:27 33.2 °F /  0.7 °C 32.2 °F /  0.1 °C 30.06in /  1017.8hPa Calm     96% 0.02in /  0.51mm WeatherDisplay:10.37 W/m2
05:32 33.2 °F /  0.7 °C 32.2 °F /  0.1 °C 30.06in /  1017.8hPa Calm     96% 0.02in /  0.51mm WeatherDisplay:10.37 W/m2
05:37 33.3 °F /  0.7 °C 32.3 °F /  0.2 °C 30.05in /  1017.5hPa Calm     96% 0.02in /  0.51mm WeatherDisplay:10.37 W/m2
05:42 33.3 °F /  0.7 °C 32.3 °F /  0.2 °C 30.05in /  1017.5hPa Calm     96% 0.01in /  0.25mm WeatherDisplay:10.37 W/m2
05:47 33.3 °F /  0.7 °C 32.3 °F /  0.2 °C 30.05in /  1017.5hPa Calm     96% 0.02in /  0.51mm WeatherDisplay:10.37 W/m2 RA
05:52 33.3 °F /  0.7 °C 32.3 °F /  0.2 °C 30.05in /  1017.5hPa ENE 3.5mph /  5.6km/h 3.5mph /  5.6km/h 96% 0.02in /  0.51mm WeatherDisplay:10.37 W/m2 RA
05:57 33.3 °F /  0.7 °C 32.3 °F /  0.2 °C 30.05in /  1017.5hPa ENE 1.2mph /  1.9km/h 1.2mph /  1.9km/h 96% 0.02in /  0.51mm WeatherDisplay:10.37 W/m2
06:02 33.3 °F /  0.7 °C 32.3 °F /  0.2 °C 30.05in /  1017.5hPa ENE 1.2mph /  1.9km/h 1.2mph /  1.9km/h 96% 0.02in /  0.51mm WeatherDisplay:10.37 W/m2
06:07 33.3 °F /  0.7 °C 32.3 °F /  0.2 °C 30.05in /  1017.5hPa ENE 1.2mph /  1.9km/h 1.2mph /  1.9km/h 96% 0.03in /  0.76mm WeatherDisplay:10.37 W/m2 RA
06:12 33.3 °F /  0.7 °C 32.3 °F /  0.2 °C 30.05in /  1017.5hPa ENE 2.3mph /  3.7km/h 2.3mph /  3.7km/h 96% 0.03in /  0.76mm WeatherDisplay:10.37 W/m2 RA
06:17 33.4 °F /  0.8 °C 32.4 °F /  0.2 °C 30.05in /  1017.5hPa ENE 2.3mph /  3.7km/h 2.3mph /  3.7km/h 96% 0.02in /  0.51mm WeatherDisplay:10.37 W/m2
06:22 33.5 °F /  0.8 °C 32.5 °F /  0.3 °C 30.05in /  1017.5hPa ENE 1.2mph /  1.9km/h 1.2mph /  1.9km/h 96% 0.02in /  0.51mm WeatherDisplay:10.37 W/m2
06:27 33.5 °F /  0.8 °C 32.5 °F /  0.3 °C 30.04in /  1017.2hPa ENE 2.3mph /  3.7km/h 2.3mph /  3.7km/h 96% 0.02in /  0.51mm WeatherDisplay:10.37 W/m2
06:32 33.6 °F /  0.9 °C 32.6 °F /  0.3 °C 30.04in /  1017.2hPa ENE 1.2mph /  1.9km/h 1.2mph /  1.9km/h 96% 0.03in /  0.76mm WeatherDisplay:10.37 W/m2 RA
06:37 33.6 °F /  0.9 °C 32.6 °F /  0.3 °C 30.04in /  1017.2hPa Calm     96% 0.03in /  0.76mm WeatherDisplay:10.37 W/m2 RA
06:42 33.5 °F /  0.8 °C 32.5 °F /  0.3 °C 30.04in /  1017.2hPa Calm     96% 0.03in /  0.76mm WeatherDisplay:10.37 W/m2
06:47 33.5 °F /  0.8 °C 32.5 °F /  0.3 °C 30.04in /  1017.2hPa East 1.2mph /  1.9km/h 1.2mph /  1.9km/h 96% 0.02in /  0.51mm WeatherDisplay:10.37 W/m2
06:52 33.5 °F /  0.8 °C 32.5 °F /  0.3 °C 30.04in /  1017.2hPa East 1.2mph /  1.9km/h 1.2mph /  1.9km/h 96% 0.02in /  0.51mm WeatherDisplay:10.37 W/m2
06:57 33.6 °F /  0.9 °C 32.6 °F /  0.3 °C 30.04in /  1017.2hPa Calm     96% 0.03in /  0.76mm WeatherDisplay:10.37 W/m2 RA
07:02 33.5 °F /  0.8 °C 32.5 °F /  0.3 °C 30.05in /  1017.5hPa East 1.2mph /  1.9km/h 1.2mph /  1.9km/h 96% 0.03in /  0.76mm WeatherDisplay:10.37 W/m2 RA
07:07 33.5 °F /  0.8 °C 32.5 °F /  0.3 °C 30.05in /  1017.5hPa Calm     96% 0.03in /  0.76mm WeatherDisplay:10.37 W/m2 RA
07:12 33.5 °F /  0.8 °C 32.5 °F /  0.3 °C 30.05in /  1017.5hPa Calm     96% 0.04in /  1.02mm WeatherDisplay:10.37 W/m2 RA
07:17 33.4 °F /  0.8 °C 32.4 °F /  0.2 °C 30.05in /  1017.5hPa East 2.3mph /  3.7km/h 2.3mph /  3.7km/h 96% 0.04in /  1.02mm WeatherDisplay:10.37 W/m2 RA
07:22 33.3 °F /  0.7 °C 32.3 °F /  0.2 °C 30.05in /  1017.5hPa Calm     96% 0.05in /  1.27mm WeatherDisplay:10.37 W/m2 RA
07:27 33.2 °F /  0.7 °C 32.2 °F /  0.1 °C 30.06in /  1017.8hPa East 1.2mph /  1.9km/h   96% 0.06in /  1.52mm WeatherDisplay:10.37 W/m2 RA
07:32 33.1 °F /  0.6 °C 32.1 °F /  0.1 °C 30.06in /  1017.8hPa East 1.2mph /  1.9km/h 1.2mph /  1.9km/h 96% 0.06in /  1.52mm WeatherDisplay:10.37 W/m2 RA
07:37 33.1 °F /  0.6 °C 32.1 °F /  0.1 °C 30.06in /  1017.8hPa East 1.2mph /  1.9km/h 1.2mph /  1.9km/h 96% 0.07in /  1.78mm WeatherDisplay:10.37 W/m2 RA
07:42 33.0 °F /  0.6 °C 32.0 °F /  0 °C 30.06in /  1017.8hPa East 1.2mph /  1.9km/h 1.2mph /  1.9km/h 96% 0.07in /  1.78mm WeatherDisplay:10.37 W/m2 RA
07:47 33.0 °F /  0.6 °C 32.0 °F /  0 °C 30.06in /  1017.8hPa East 1.2mph /  1.9km/h 1.2mph /  1.9km/h 96% 0.08in /  2.03mm WeatherDisplay:10.37 W/m2 RA
07:52 32.9 °F /  0.5 °C 31.9 °F /  -0.1 °C 30.06in /  1017.8hPa East 1.2mph /  1.9km/h 1.2mph /  1.9km/h 96% 0.09in /  2.29mm WeatherDisplay:10.37 W/m2 RA
07:57 32.9 °F /  0.5 °C 31.9 °F /  -0.1 °C 30.07in /  1018.2hPa Calm     96% 0.08in /  2.03mm WeatherDisplay:10.37 W/m2 RA
08:02 32.9 °F /  0.5 °C 31.9 °F /  -0.1 °C 30.07in /  1018.2hPa Calm     96% 0.08in /  2.03mm WeatherDisplay:10.37 W/m2
08:07 32.9 °F /  0.5 °C 31.9 °F /  -0.1 °C 30.07in /  1018.2hPa Calm     96% 0.07in /  1.78mm WeatherDisplay:10.37 W/m2
08:12 32.9 °F /  0.5 °C 31.9 °F /  -0.1 °C 30.07in /  1018.2hPa East 1.2mph /  1.9km/h 1.2mph /  1.9km/h 96% 0.07in /  1.78mm WeatherDisplay:10.37 W/m2 RA
08:17 33.0 °F /  0.6 °C 32.0 °F /  0 °C 30.07in /  1018.2hPa East 2.3mph /  3.7km/h 2.3mph /  3.7km/h 96% 0.07in /  1.78mm WeatherDisplay:10.37 W/m2 RA
08:22 33.0 °F /  0.6 °C 32.2 °F /  0.1 °C 30.07in /  1018.2hPa East 1.2mph /  1.9km/h 1.2mph /  1.9km/h 97% 0.06in /  1.52mm WeatherDisplay:10.37 W/m2
08:27 33.0 °F /  0.6 °C 32.2 °F /  0.1 °C 30.07in /  1018.2hPa East 1.2mph /  1.9km/h 1.2mph /  1.9km/h 97% 0.05in /  1.27mm WeatherDisplay:10.37 W/m2
08:32 33.0 °F /  0.6 °C 32.2 °F /  0.1 °C 30.07in /  1018.2hPa East 2.3mph /  3.7km/h 2.3mph /  3.7km/h 97% 0.05in /  1.27mm WeatherDisplay:10.37 W/m2 RA
08:37 33.0 °F /  0.6 °C 32.2 °F /  0.1 °C 30.08in /  1018.5hPa Calm     97% 0.04in /  1.02mm WeatherDisplay:10.37 W/m2 RA
08:42 33.1 °F /  0.6 °C 32.1 °F /  0.1 °C 30.08in /  1018.5hPa East 1.2mph /  1.9km/h 1.2mph /  1.9km/h 96% 0.04in /  1.02mm WeatherDisplay:10.37 W/m2
08:47 33.1 °F /  0.6 °C 32.3 °F /  0.2 °C 30.08in /  1018.5hPa Calm     97% 0.03in /  0.76mm WeatherDisplay:10.37 W/m2
08:52 33.2 °F /  0.7 °C 32.4 °F /  0.2 °C 30.08in /  1018.5hPa East 2.3mph /  3.7km/h 2.3mph /  3.7km/h 97% 0.02in /  0.51mm WeatherDisplay:10.37 W/m2
08:57 33.2 °F /  0.7 °C 32.4 °F /  0.2 °C 30.08in /  1018.5hPa Calm     97% 0.03in /  0.76mm WeatherDisplay:10.37 W/m2 RA
09:02 33.2 °F /  0.7 °C 32.4 °F /  0.2 °C 30.08in /  1018.5hPa East 1.2mph /  1.9km/h 1.2mph /  1.9km/h 97% 0.03in /  0.76mm WeatherDisplay:10.37 W/m2 RA
09:07 33.2 °F /  0.7 °C 32.4 °F /  0.2 °C 30.08in /  1018.5hPa Calm     97% 0.03in /  0.76mm WeatherDisplay:10.37 W/m2
09:12 33.3 °F /  0.7 °C 32.5 °F /  0.3 °C 30.09in /  1018.8hPa Calm     97% 0.02in /  0.51mm WeatherDisplay:10.37 W/m2
09:17 33.4 °F /  0.8 °C 32.6 °F /  0.3 °C 30.09in /  1018.8hPa East 1.2mph /  1.9km/h 1.2mph /  1.9km/h 97% 0.02in /  0.51mm WeatherDisplay:10.37 W/m2
09:22 33.4 °F /  0.8 °C 32.6 °F /  0.3 °C 30.09in /  1018.8hPa East 1.2mph /  1.9km/h 1.2mph /  1.9km/h 97% 0.03in /  0.76mm WeatherDisplay:10.37 W/m2 RA
09:27 33.4 °F /  0.8 °C 32.6 °F /  0.3 °C 30.10in /  1019.2hPa Calm     97% 0.03in /  0.76mm WeatherDisplay:10.37 W/m2 RA
09:32 33.5 °F /  0.8 °C 32.7 °F /  0.4 °C 30.10in /  1019.2hPa Calm     97% 0.02in /  0.51mm WeatherDisplay:10.37 W/m2
09:37 33.6 °F /  0.9 °C 32.8 °F /  0.4 °C 30.10in /  1019.2hPa Calm     97% 0.03in /  0.76mm WeatherDisplay:10.37 W/m2 RA
09:42 33.8 °F /  1 °C 33.0 °F /  0.6 °C 30.10in /  1019.2hPa Calm     97% 0.03in /  0.76mm WeatherDisplay:10.37 W/m2 RA
09:47 34.0 °F /  1.1 °C 33.2 °F /  0.7 °C 30.10in /  1019.2hPa Calm     97% 0.03in /  0.76mm WeatherDisplay:10.37 W/m2
09:52 34.1 °F /  1.2 °C 33.3 °F /  0.7 °C 30.10in /  1019.2hPa Calm     97% 0.04in /  1.02mm WeatherDisplay:10.37 W/m2 RA
09:57 34.2 °F /  1.2 °C 33.4 °F /  0.8 °C 30.10in /  1019.2hPa Calm     97% 0.03in /  0.76mm WeatherDisplay:10.37 W/m2 RA
10:02 34.4 °F /  1.3 °C 33.6 °F /  0.9 °C 30.10in /  1019.2hPa Calm     97% 0.04in /  1.02mm WeatherDisplay:10.37 W/m2 RA
10:07 34.5 °F /  1.4 °C 33.7 °F /  0.9 °C 30.10in /  1019.2hPa Calm     97% 0.04in /  1.02mm WeatherDisplay:10.37 W/m2 RA
10:08 34.4 °F /  1.3 °C 33.6 °F /  0.9 °C 30.10in /  1019.2hPa Calm     97% 0.04in /  1.02mm WeatherDisplay:10.37 W/m2 RA
10:13 34.7 °F /  1.5 °C 33.9 °F /  1.1 °C 30.11in /  1019.5hPa Calm     97% 0.05in /  1.27mm WeatherDisplay:10.37 W/m2 RA
10:18 35.1 °F /  1.7 °C 34.3 °F /  1.3 °C 30.11in /  1019.5hPa Calm     97% 0.04in /  1.02mm WeatherDisplay:10.37 W/m2 RA
10:23 35.3 °F /  1.8 °C 34.5 °F /  1.4 °C 30.11in /  1019.5hPa East 1.2mph /  1.9km/h 1.2mph /  1.9km/h 97% 0.05in /  1.27mm WeatherDisplay:10.37 W/m2 RA
10:28 35.6 °F /  2 °C 34.8 °F /  1.6 °C 30.11in /  1019.5hPa East 1.2mph /  1.9km/h 1.2mph /  1.9km/h 97% 0.06in /  1.52mm WeatherDisplay:10.37 W/m2 RA
10:33 35.8 °F /  2.1 °C 35.0 °F /  1.7 °C 30.11in /  1019.5hPa Calm     97% 0.07in /  1.78mm WeatherDisplay:10.37 W/m2 RA
10:38 35.9 °F /  2.2 °C 35.1 °F /  1.7 °C 30.12in /  1019.9hPa Calm     97% 0.07in /  1.78mm WeatherDisplay:10.37 W/m2 RA
10:43 36.1 °F /  2.3 °C 35.3 °F /  1.8 °C 30.12in /  1019.9hPa Calm     97% 0.07in /  1.78mm WeatherDisplay:10.37 W/m2 RA
10:48 36.2 °F /  2.3 °C 35.4 °F /  1.9 °C 30.12in /  1019.9hPa East 1.2mph /  1.9km/h 1.2mph /  1.9km/h 97% 0.08in /  2.03mm WeatherDisplay:10.37 W/m2 RA
10:53 36.2 °F /  2.3 °C 35.4 °F /  1.9 °C 30.12in /  1019.9hPa East 1.2mph /  1.9km/h 1.2mph /  1.9km/h 97% 0.08in /  2.03mm WeatherDisplay:10.37 W/m2 RA
10:58 36.5 °F /  2.5 °C 35.7 °F /  2.1 °C 30.12in /  1019.9hPa Calm     97% 0.08in /  2.03mm WeatherDisplay:10.37 W/m2 RA
11:03 36.7 °F /  2.6 °C 35.9 °F /  2.2 °C 30.12in /  1019.9hPa East 1.2mph /  1.9km/h 1.2mph /  1.9km/h 97% 0.08in /  2.03mm WeatherDisplay:10.37 W/m2 RA
11:08 37.0 °F /  2.8 °C 36.2 °F /  2.3 °C 30.12in /  1019.9hPa East 1.2mph /  1.9km/h 1.2mph /  1.9km/h 97% 0.09in /  2.29mm WeatherDisplay:10.37 W/m2 RA
11:13 37.2 °F /  2.9 °C 36.4 °F /  2.4 °C 30.12in /  1019.9hPa East 1.2mph /  1.9km/h 1.2mph /  1.9km/h 97% 0.09in /  2.29mm WeatherDisplay:10.37 W/m2 RA
11:18 37.4 °F /  3 °C 36.6 °F /  2.6 °C 30.12in /  1019.9hPa East 1.2mph /  1.9km/h 1.2mph /  1.9km/h 97% 0.09in /  2.29mm WeatherDisplay:10.37 W/m2 RA
11:23 37.6 °F /  3.1 °C 36.8 °F /  2.7 °C 30.13in /  1020.2hPa East 1.2mph /  1.9km/h 1.2mph /  1.9km/h 97% 0.09in /  2.29mm WeatherDisplay:10.37 W/m2 RA
11:28 37.8 °F /  3.2 °C 37.0 °F /  2.8 °C 30.13in /  1020.2hPa East 1.2mph /  1.9km/h 1.2mph /  1.9km/h 97% 0.09in /  2.29mm WeatherDisplay:10.37 W/m2 RA
11:33 37.9 °F /  3.3 °C 37.1 °F /  2.8 °C 30.12in /  1019.9hPa East 2.3mph /  3.7km/h 2.3mph /  3.7km/h 97% 0.08in /  2.03mm WeatherDisplay:10.37 W/m2 RA
11:38 37.9 °F /  3.3 °C 37.1 °F /  2.8 °C 30.12in /  1019.9hPa East 1.2mph /  1.9km/h 1.2mph /  1.9km/h 97% 0.08in /  2.03mm WeatherDisplay:10.37 W/m2 RA
11:43 38.0 °F /  3.3 °C 37.2 °F /  2.9 °C 30.12in /  1019.9hPa ESE 2.3mph /  3.7km/h 2.3mph /  3.7km/h 97% 0.09in /  2.29mm WeatherDisplay:10.37 W/m2 RA
11:48 38.0 °F /  3.3 °C 37.2 °F /  2.9 °C 30.12in /  1019.9hPa ESE 2.0mph /  3.2km/h 2.0mph /  3.2km/h 97% 0.08in /  2.03mm WeatherDisplay:10.37 W/m2 RA
11:53 38.2 °F /  3.4 °C 37.2 °F /  2.9 °C 30.12in /  1019.9hPa ESE 2.3mph /  3.7km/h 2.3mph /  3.7km/h 96% 0.08in /  2.03mm WeatherDisplay:10.37 W/m2 RA
11:58 38.5 °F /  3.6 °C 37.7 °F /  3.2 °C 30.12in /  1019.9hPa ENE 3.5mph /  5.6km/h 3.5mph /  5.6km/h 97% 0.08in /  2.03mm WeatherDisplay:10.37 W/m2 RA
12:03 38.8 °F /  3.8 °C 38.0 °F /  3.3 °C 30.12in /  1019.9hPa ENE 2.3mph /  3.7km/h 2.3mph /  3.7km/h 97% 0.08in /  2.03mm WeatherDisplay:10.37 W/m2 RA
12:08 39.0 °F /  3.9 °C 38.0 °F /  3.3 °C 30.12in /  1019.9hPa ENE 2.3mph /  3.7km/h 2.3mph /  3.7km/h 96% 0.07in /  1.78mm WeatherDisplay:10.37 W/m2 RA
12:13 39.1 °F /  3.9 °C 38.1 °F /  3.4 °C 30.11in /  1019.5hPa ENE 3.5mph /  5.6km/h 3.5mph /  5.6km/h 96% 0.07in /  1.78mm WeatherDisplay:10.37 W/m2 RA
12:23 39.3 °F /  4.1 °C 38.0 °F /  3.3 °C 30.11in /  1019.5hPa ENE 1.2mph /  1.9km/h 1.2mph /  1.9km/h 95% 0.07in /  1.78mm WeatherDisplay:10.37 W/m2 RA
12:28 39.5 °F /  4.2 °C 38.2 °F /  3.4 °C 30.11in /  1019.5hPa ENE 1.2mph /  1.9km/h 1.2mph /  1.9km/h 95% 0.06in /  1.52mm WeatherDisplay:10.37 W/m2
12:33 39.7 °F /  4.3 °C 38.4 °F /  3.6 °C 30.11in /  1019.5hPa ENE 2.3mph /  3.7km/h 2.3mph /  3.7km/h 95% 0.07in /  1.78mm WeatherDisplay:10.37 W/m2 RA
12:38 39.8 °F /  4.3 °C 38.5 °F /  3.6 °C 30.11in /  1019.5hPa Calm     95% 0.06in /  1.52mm WeatherDisplay:10.37 W/m2 RA
12:43 40.1 °F /  4.5 °C 39.1 °F /  3.9 °C 30.11in /  1019.5hPa ENE 2.3mph /  3.7km/h 2.3mph /  3.7km/h 96% 0.05in /  1.27mm WeatherDisplay:10.37 W/m2
12:48 40.2 °F /  4.6 °C 38.9 °F /  3.8 °C 30.11in /  1019.5hPa ENE 2.3mph /  3.7km/h 2.3mph /  3.7km/h 95% 0.06in /  1.52mm WeatherDisplay:10.37 W/m2 RA
12:53 40.4 °F /  4.7 °C 39.1 °F /  3.9 °C 30.11in /  1019.5hPa ENE 2.3mph /  3.7km/h 2.3mph /  3.7km/h 95% 0.05in /  1.27mm WeatherDisplay:10.37 W/m2 RA
12:59 40.6 °F /  4.8 °C 39.3 °F /  4.1 °C 30.11in /  1019.5hPa ENE 2.3mph /  3.7km/h 2.3mph /  3.7km/h 95% 0.05in /  1.27mm WeatherDisplay:10.37 W/m2
13:04 40.7 °F /  4.8 °C 39.4 °F /  4.1 °C 30.11in /  1019.5hPa ENE 2.0mph /  3.2km/h 2.0mph /  3.2km/h 95% 0.05in /  1.27mm WeatherDisplay:10.37 W/m2 RA
13:09 40.9 °F /  4.9 °C 39.6 °F /  4.2 °C 30.11in /  1019.5hPa ENE 1.2mph /  1.9km/h 1.2mph /  1.9km/h 95% 0.05in /  1.27mm WeatherDisplay:10.37 W/m2 RA
13:14 41.0 °F /  5 °C 39.7 °F /  4.3 °C 30.11in /  1019.5hPa ENE 2.0mph /  3.2km/h 2.0mph /  3.2km/h 95% 0.04in /  1.02mm WeatherDisplay:10.37 W/m2
13:19 41.0 °F /  5 °C 39.7 °F /  4.3 °C 30.11in /  1019.5hPa NE 2.3mph /  3.7km/h 2.3mph /  3.7km/h 95% 0.03in /  0.76mm WeatherDisplay:10.37 W/m2
13:24 41.0 °F /  5 °C 39.7 °F /  4.3 °C 30.11in /  1019.5hPa NE 1.2mph /  1.9km/h 1.2mph /  1.9km/h 95% 0.03in /  0.76mm WeatherDisplay:10.37 W/m2
13:29 41.2 °F /  5.1 °C 39.9 °F /  4.4 °C 30.11in /  1019.5hPa NE 1.2mph /  1.9km/h 1.2mph /  1.9km/h 95% 0.03in /  0.76mm WeatherDisplay:10.37 W/m2
13:34 41.4 °F /  5.2 °C 40.3 °F /  4.6 °C 30.11in /  1019.5hPa North 4.0mph /  6.4km/h 4.0mph /  6.4km/h 96% 0.02in /  0.51mm WeatherDisplay:10.37 W/m2
13:39 41.5 °F /  5.3 °C 40.2 °F /  4.6 °C 30.11in /  1019.5hPa North 2.3mph /  3.7km/h 2.3mph /  3.7km/h 95% 0.02in /  0.51mm WeatherDisplay:10.37 W/m2
13:44 41.5 °F /  5.3 °C 40.2 °F /  4.6 °C 30.11in /  1019.5hPa North 3.5mph /  5.6km/h 3.5mph /  5.6km/h 95% 0.03in /  0.76mm WeatherDisplay:10.37 W/m2 RA
13:49 41.5 °F /  5.3 °C 40.2 °F /  4.6 °C 30.11in /  1019.5hPa North 1.2mph /  1.9km/h 1.2mph /  1.9km/h 95% 0.02in /  0.51mm WeatherDisplay:10.37 W/m2 RA
13:54 41.5 °F /  5.3 °C 40.2 °F /  4.6 °C 30.11in /  1019.5hPa North 2.3mph /  3.7km/h 2.3mph /  3.7km/h 95% 0.02in /  0.51mm WeatherDisplay:10.37 W/m2
13:59 41.5 °F /  5.3 °C 40.2 °F /  4.6 °C 30.11in /  1019.5hPa North 1.2mph /  1.9km/h 1.2mph /  1.9km/h 95% 0.03in /  0.76mm WeatherDisplay:10.37 W/m2 RA
14:29 42.5 °F /  5.8 °C 41.2 °F /  5.1 °C 30.12in /  1019.9hPa Calm   3.0mph /  4.8km/h 95% 0.02in /  0.51mm WeatherDisplay:10.37 W/m2 RA
15:04 43.2 °F /  6.2 °C 41.3 °F /  5.2 °C 30.12in /  1019.9hPa Calm   2.0mph /  3.2km/h 93% 0.02in /  0.51mm WeatherDisplay:10.37 W/m2 RA
15:09 43.2 °F /  6.2 °C 41.3 °F /  5.2 °C 30.12in /  1019.9hPa Calm   2.0mph /  3.2km/h 93% 0.02in /  0.51mm WeatherDisplay:10.37 W/m2
15:14 43.2 °F /  6.2 °C 41.3 °F /  5.2 °C 30.12in /  1019.9hPa Calm   2.0mph /  3.2km/h 93% 0.02in /  0.51mm WeatherDisplay:10.37 W/m2
15:19 43.2 °F /  6.2 °C 41.3 °F /  5.2 °C 30.12in /  1019.9hPa Calm   2.0mph /  3.2km/h 93% 0.02in /  0.51mm WeatherDisplay:10.37 W/m2
15:24 43.2 °F /  6.2 °C 41.3 °F /  5.2 °C 30.12in /  1019.9hPa Calm   2.0mph /  3.2km/h 93% 0.02in /  0.51mm WeatherDisplay:10.37 W/m2
15:29 43.2 °F /  6.2 °C 41.3 °F /  5.2 °C 30.12in /  1019.9hPa Calm   2.0mph /  3.2km/h 93% 0.02in /  0.51mm WeatherDisplay:10.37 W/m2
15:34 43.1 °F /  6.2 °C 40.7 °F /  4.8 °C 30.13in /  1020.2hPa West 1.0mph /  1.6km/h 7.0mph /  11.3km/h 91% 0.02in /  0.51mm WeatherDisplay:10.37 W/m2
15:39 43.1 °F /  6.2 °C 40.7 °F /  4.8 °C 30.13in /  1020.2hPa SSW 1.0mph /  1.6km/h 7.0mph /  11.3km/h 91% 0.01in /  0.25mm WeatherDisplay:10.37 W/m2
15:44 43.1 °F /  6.2 °C 40.7 °F /  4.8 °C 30.13in /  1020.2hPa SSW 1.0mph /  1.6km/h 7.0mph /  11.3km/h 91% 0.01in /  0.25mm WeatherDisplay:10.37 W/m2
15:49 43.1 °F /  6.2 °C 40.7 °F /  4.8 °C 30.13in /  1020.2hPa SSW 1.0mph /  1.6km/h 7.0mph /  11.3km/h 91% 0.01in /  0.25mm WeatherDisplay:10.37 W/m2
15:54 43.1 °F /  6.2 °C 40.7 °F /  4.8 °C 30.13in /  1020.2hPa SSW 1.0mph /  1.6km/h 7.0mph /  11.3km/h 91% 0.03in /  0.76mm WeatherDisplay:10.37 W/m2
15:59 43.1 °F /  6.2 °C 40.7 °F /  4.8 °C 30.13in /  1020.2hPa SSW 1.0mph /  1.6km/h 7.0mph /  11.3km/h 91% 0.00in /  0mm WeatherDisplay:10.37 W/m2
16:04 43.6 °F /  6.4 °C 40.6 °F /  4.8 °C 30.14in /  1020.5hPa SSW 1.0mph /  1.6km/h 4.0mph /  6.4km/h 89% 0.00in /  0mm WeatherDisplay:10.37 W/m2
16:09 43.6 °F /  6.4 °C 40.6 °F /  4.8 °C 30.14in /  1020.5hPa SSW 1.0mph /  1.6km/h 4.0mph /  6.4km/h 89% 0.00in /  0mm WeatherDisplay:10.37 W/m2
16:14 43.6 °F /  6.4 °C 40.6 °F /  4.8 °C 30.14in /  1020.5hPa SSW 1.0mph /  1.6km/h 4.0mph /  6.4km/h 89% 0.00in /  0mm WeatherDisplay:10.37 W/m2
16:19 43.6 °F /  6.4 °C 40.6 °F /  4.8 °C 30.14in /  1020.5hPa SSW 1.0mph /  1.6km/h 4.0mph /  6.4km/h 89% 0.00in /  0mm WeatherDisplay:10.37 W/m2
16:24 43.6 °F /  6.4 °C 40.6 °F /  4.8 °C 30.14in /  1020.5hPa SSW 1.0mph /  1.6km/h 4.0mph /  6.4km/h 89% 0.00in /  0mm WeatherDisplay:10.37 W/m2
16:29 43.6 °F /  6.4 °C 40.6 °F /  4.8 °C 30.14in /  1020.5hPa SSW 1.0mph /  1.6km/h 4.0mph /  6.4km/h 89% 0.00in /  0mm WeatherDisplay:10.37 W/m2
16:34 43.2 °F /  6.2 °C 40.2 °F /  4.6 °C 30.15in /  1020.9hPa Calm   8.0mph /  12.9km/h 89% 0.00in /  0mm WeatherDisplay:10.37 W/m2
16:39 43.2 °F /  6.2 °C 40.2 °F /  4.6 °C 30.15in /  1020.9hPa Calm   8.0mph /  12.9km/h 89% 0.00in /  0mm WeatherDisplay:10.37 W/m2
16:44 43.2 °F /  6.2 °C 40.2 °F /  4.6 °C 30.15in /  1020.9hPa Calm   8.0mph /  12.9km/h 89% 0.00in /  0mm WeatherDisplay:10.37 W/m2
16:49 43.2 °F /  6.2 °C 40.2 °F /  4.6 °C 30.15in /  1020.9hPa Calm   8.0mph /  12.9km/h 89% 0.00in /  0mm WeatherDisplay:10.37 W/m2
16:54 43.2 °F /  6.2 °C 40.2 °F /  4.6 °C 30.15in /  1020.9hPa Calm   8.0mph /  12.9km/h 89% 0.00in /  0mm WeatherDisplay:10.37 W/m2
16:59 43.2 °F /  6.2 °C 40.2 °F /  4.6 °C 30.15in /  1020.9hPa Calm   8.0mph /  12.9km/h 89% 0.00in /  0mm WeatherDisplay:10.37 W/m2
17:12 42.8 °F /  6 °C 41.2 °F /  5.1 °C 30.16in /  1021.2hPa South 8.1mph /  13km/h 8.1mph /  13km/h 94% 0.00in /  0mm WeatherDisplay:10.37 W/m2
17:36 41.4 °F /  5.2 °C 39.5 °F /  4.2 °C 30.17in /  1021.6hPa South 1.2mph /  1.9km/h 1.2mph /  1.9km/h 93% 0.00in /  0mm WeatherDisplay:10.37 W/m2 CLR
17:41 41.2 °F /  5.1 °C 39.6 °F /  4.2 °C 30.17in /  1021.6hPa Calm     94% 0.00in /  0mm WeatherDisplay:10.37 W/m2
17:46 41.0 °F /  5 °C 39.4 °F /  4.1 °C 30.17in /  1021.6hPa Calm     94% 0.00in /  0mm WeatherDisplay:10.37 W/m2
17:51 40.8 °F /  4.9 °C 39.2 °F /  4 °C 30.17in /  1021.6hPa Calm     94% 0.00in /  0mm WeatherDisplay:10.37 W/m2
17:56 40.6 °F /  4.8 °C 39.3 °F /  4.1 °C 30.18in /  1021.9hPa Calm     95% 0.00in /  0mm WeatherDisplay:10.37 W/m2
18:01 40.4 °F /  4.7 °C 39.1 °F /  3.9 °C 30.18in /  1021.9hPa Calm     95% 0.00in /  0mm WeatherDisplay:10.37 W/m2
18:06 40.3 °F /  4.6 °C 39.0 °F /  3.9 °C 30.19in /  1022.2hPa Calm     95% 0.00in /  0mm WeatherDisplay:10.37 W/m2
18:11 40.2 °F /  4.6 °C 38.9 °F /  3.8 °C 30.19in /  1022.2hPa South 1.0mph /  1.6km/h 1.0mph /  1.6km/h 95% 0.00in /  0mm WeatherDisplay:10.37 W/m2
18:16 40.1 °F /  4.5 °C 38.8 °F /  3.8 °C 30.19in /  1022.2hPa Calm     95% 0.00in /  0mm WeatherDisplay:10.37 W/m2
18:21 40.0 °F /  4.4 °C 39.0 °F /  3.9 °C 30.19in /  1022.2hPa South 1.2mph /  1.9km/h   96% 0.00in /  0mm WeatherDisplay:10.37 W/m2
18:26 39.9 °F /  4.4 °C 38.6 °F /  3.7 °C 30.19in /  1022.2hPa South 1.2mph /  1.9km/h 1.2mph /  1.9km/h 95% 0.00in /  0mm WeatherDisplay:10.37 W/m2
18:31 39.8 °F /  4.3 °C 38.8 °F /  3.8 °C 30.20in /  1022.6hPa Calm     96% 0.01in /  0.25mm WeatherDisplay:10.37 W/m2 RA
18:36 39.7 °F /  4.3 °C 38.7 °F /  3.7 °C 30.20in /  1022.6hPa South 2.3mph /  3.7km/h 2.3mph /  3.7km/h 96% 0.01in /  0.25mm WeatherDisplay:10.37 W/m2 RA
18:41 39.6 °F /  4.2 °C 38.6 °F /  3.7 °C 30.20in /  1022.6hPa South 1.2mph /  1.9km/h 1.2mph /  1.9km/h 96% 0.01in /  0.25mm WeatherDisplay:10.37 W/m2
18:46 39.5 °F /  4.2 °C 38.5 °F /  3.6 °C 30.20in /  1022.6hPa South 2.3mph /  3.7km/h 2.3mph /  3.7km/h 96% 0.01in /  0.25mm WeatherDisplay:10.37 W/m2
18:51 39.3 °F /  4.1 °C 38.0 °F /  3.3 °C 30.21in /  1022.9hPa Calm     95% 0.01in /  0.25mm WeatherDisplay:10.37 W/m2
18:56 39.2 °F /  4 °C 38.2 °F /  3.4 °C 30.21in /  1022.9hPa South 1.0mph /  1.6km/h 1.0mph /  1.6km/h 96% 0.01in /  0.25mm WeatherDisplay:10.37 W/m2
19:01 39.0 °F /  3.9 °C 37.7 °F /  3.2 °C 30.21in /  1022.9hPa South 1.2mph /  1.9km/h   95% 0.01in /  0.25mm WeatherDisplay:10.37 W/m2
19:06 38.7 °F /  3.7 °C 37.4 °F /  3 °C 30.21in /  1022.9hPa Calm     95% 0.01in /  0.25mm WeatherDisplay:10.37 W/m2
19:11 38.5 °F /  3.6 °C 37.2 °F /  2.9 °C 30.22in /  1023.2hPa Calm     95% 0.01in /  0.25mm WeatherDisplay:10.37 W/m2
19:16 38.2 °F /  3.4 °C 36.9 °F /  2.7 °C 30.22in /  1023.2hPa Calm     95% 0.01in /  0.25mm WeatherDisplay:10.37 W/m2
19:21 37.9 °F /  3.3 °C 36.6 °F /  2.6 °C 30.22in /  1023.2hPa Calm     95% 0.01in /  0.25mm WeatherDisplay:10.37 W/m2
19:26 37.7 °F /  3.2 °C 36.4 °F /  2.4 °C 30.23in /  1023.6hPa Calm     95% 0.01in /  0.25mm WeatherDisplay:10.37 W/m2
19:31 37.4 °F /  3 °C 36.1 °F /  2.3 °C 30.23in /  1023.6hPa South 1.2mph /  1.9km/h 1.2mph /  1.9km/h 95% 0.00in /  0mm WeatherDisplay:10.37 W/m2 CLR
19:36 37.3 °F /  2.9 °C 36.3 °F /  2.4 °C 30.23in /  1023.6hPa South 1.2mph /  1.9km/h 1.2mph /  1.9km/h 96% 0.00in /  0mm WeatherDisplay:10.37 W/m2 CLR
19:41 37.0 °F /  2.8 °C 35.7 °F /  2.1 °C 30.23in /  1023.6hPa Calm     95% 0.00in /  0mm WeatherDisplay:10.37 W/m2 CLR
19:46 36.6 °F /  2.6 °C 35.3 °F /  1.8 °C 30.23in /  1023.6hPa South 1.2mph /  1.9km/h 1.2mph /  1.9km/h 95% 0.00in /  0mm WeatherDisplay:10.37 W/m2 CLR
19:51 35.9 °F /  2.2 °C 34.3 °F /  1.3 °C 30.24in /  1023.9hPa South 1.2mph /  1.9km/h 1.2mph /  1.9km/h 94% 0.00in /  0mm WeatherDisplay:10.37 W/m2 CLR
19:56 35.8 °F /  2.1 °C 34.5 °F /  1.4 °C 30.24in /  1023.9hPa South 1.2mph /  1.9km/h 1.2mph /  1.9km/h 95% 0.00in /  0mm WeatherDisplay:10.37 W/m2 CLR
20:01 35.7 °F /  2.1 °C 34.7 °F /  1.5 °C 30.24in /  1023.9hPa South 1.2mph /  1.9km/h 1.2mph /  1.9km/h 96% 0.00in /  0mm WeatherDisplay:10.37 W/m2 CLR
20:06 35.5 °F /  1.9 °C 34.5 °F /  1.4 °C 30.25in /  1024.3hPa South 1.0mph /  1.6km/h   96% 0.00in /  0mm WeatherDisplay:10.37 W/m2 CLR
20:11 35.2 °F /  1.8 °C 33.9 °F /  1.1 °C 30.25in /  1024.3hPa South 1.2mph /  1.9km/h 1.2mph /  1.9km/h 95% 0.00in /  0mm WeatherDisplay:10.37 W/m2 CLR
20:16 35.1 °F /  1.7 °C 34.1 °F /  1.2 °C 30.26in /  1024.6hPa South 1.2mph /  1.9km/h 1.2mph /  1.9km/h 96% 0.00in /  0mm WeatherDisplay:10.37 W/m2 CLR
20:21 34.9 °F /  1.6 °C 33.9 °F /  1.1 °C 30.26in /  1024.6hPa South 1.2mph /  1.9km/h 1.2mph /  1.9km/h 96% 0.00in /  0mm WeatherDisplay:10.37 W/m2 CLR
20:26 34.8 °F /  1.6 °C 33.8 °F /  1 °C 30.26in /  1024.6hPa Calm     96% 0.00in /  0mm WeatherDisplay:10.37 W/m2 CLR
20:31 34.6 °F /  1.4 °C 33.6 °F /  0.9 °C 30.26in /  1024.6hPa Calm     96% 0.00in /  0mm WeatherDisplay:10.37 W/m2 CLR
20:36 34.3 °F /  1.3 °C 33.3 °F /  0.7 °C 30.27in /  1024.9hPa Calm     96% 0.00in /  0mm WeatherDisplay:10.37 W/m2 CLR
20:41 34.1 °F /  1.2 °C 33.1 °F /  0.6 °C 30.27in /  1024.9hPa Calm     96% 0.00in /  0mm WeatherDisplay:10.37 W/m2 CLR
20:46 33.9 °F /  1.1 °C 32.9 °F /  0.5 °C 30.27in /  1024.9hPa South 1.2mph /  1.9km/h 1.2mph /  1.9km/h 96% 0.00in /  0mm WeatherDisplay:10.37 W/m2 CLR
20:51 33.7 °F /  0.9 °C 32.7 °F /  0.4 °C 30.28in /  1025.3hPa South 1.2mph /  1.9km/h   96% 0.00in /  0mm WeatherDisplay:10.37 W/m2 CLR
20:56 33.5 °F /  0.8 °C 32.5 °F /  0.3 °C 30.28in /  1025.3hPa Calm     96% 0.00in /  0mm WeatherDisplay:10.37 W/m2 CLR
21:01 33.3 °F /  0.7 °C 32.3 °F /  0.2 °C 30.28in /  1025.3hPa South 1.2mph /  1.9km/h   96% 0.00in /  0mm WeatherDisplay:10.37 W/m2 CLR
21:06 32.9 °F /  0.5 °C 31.6 °F /  -0.2 °C 30.28in /  1025.3hPa Calm     95% 0.00in /  0mm WeatherDisplay:10.37 W/m2 CLR
21:11 32.5 °F /  0.3 °C 31.2 °F /  -0.4 °C 30.28in /  1025.3hPa Calm     95% 0.00in /  0mm WeatherDisplay:10.37 W/m2 CLR
21:16 32.3 °F /  0.2 °C 31.0 °F /  -0.6 °C 30.29in /  1025.6hPa South 1.0mph /  1.6km/h 1.0mph /  1.6km/h 95% 0.00in /  0mm WeatherDisplay:10.37 W/m2 CLR
21:21 32.0 °F /  0 °C 30.7 °F /  -0.7 °C 30.29in /  1025.6hPa South 1.2mph /  1.9km/h 1.2mph /  1.9km/h 95% 0.00in /  0mm WeatherDisplay:10.37 W/m2 CLR
21:26 32.0 °F /  0 °C 31.0 °F /  -0.6 °C 30.29in /  1025.6hPa South 2.3mph /  3.7km/h 2.3mph /  3.7km/h 96% 0.00in /  0mm WeatherDisplay:10.37 W/m2 CLR
21:31 32.0 °F /  0 °C 31.0 °F /  -0.6 °C 30.29in /  1025.6hPa South 1.2mph /  1.9km/h 1.2mph /  1.9km/h 96% 0.00in /  0mm WeatherDisplay:10.37 W/m2 CLR
21:36 32.0 °F /  0 °C 31.0 °F /  -0.6 °C 30.30in /  1026hPa South 2.3mph /  3.7km/h 2.3mph /  3.7km/h 96% 0.00in /  0mm WeatherDisplay:10.37 W/m2 CLR
21:41 31.9 °F /  -0.1 °C 30.9 °F /  -0.6 °C 30.30in /  1026hPa Calm     96% 0.00in /  0mm WeatherDisplay:10.37 W/m2 CLR
21:46 31.9 °F /  -0.1 °C 30.9 °F /  -0.6 °C 30.30in /  1026hPa South 1.2mph /  1.9km/h 1.2mph /  1.9km/h 96% 0.00in /  0mm WeatherDisplay:10.37 W/m2 CLR
21:51 32.0 °F /  0 °C 31.2 °F /  -0.4 °C 30.30in /  1026hPa Calm     97% 0.00in /  0mm WeatherDisplay:10.37 W/m2 CLR
21:56 31.9 °F /  -0.1 °C 31.1 °F /  -0.5 °C 30.30in /  1026hPa Calm     97% 0.00in /  0mm WeatherDisplay:10.37 W/m2 CLR
22:01 31.9 °F /  -0.1 °C 30.9 °F /  -0.6 °C 30.30in /  1026hPa South 1.2mph /  1.9km/h 1.2mph /  1.9km/h 96% 0.00in /  0mm WeatherDisplay:10.37 W/m2 CLR
22:06 31.7 °F /  -0.2 °C 30.7 °F /  -0.7 °C 30.30in /  1026hPa South 1.2mph /  1.9km/h 1.2mph /  1.9km/h 96% 0.00in /  0mm WeatherDisplay:10.37 W/m2 CLR
22:11 31.6 °F /  -0.2 °C 30.6 °F /  -0.8 °C 30.31in /  1026.3hPa South 1.2mph /  1.9km/h 1.2mph /  1.9km/h 96% 0.00in /  0mm WeatherDisplay:10.37 W/m2 CLR
22:16 31.5 °F /  -0.3 °C 30.7 °F /  -0.7 °C 30.31in /  1026.3hPa South 1.2mph /  1.9km/h 1.2mph /  1.9km/h 97% 0.00in /  0mm WeatherDisplay:10.37 W/m2 CLR
22:21 31.5 °F /  -0.3 °C 30.7 °F /  -0.7 °C 30.31in /  1026.3hPa South 1.2mph /  1.9km/h 1.2mph /  1.9km/h 97% 0.00in /  0mm WeatherDisplay:10.37 W/m2 CLR
22:26 31.6 °F /  -0.2 °C 30.8 °F /  -0.7 °C 30.31in /  1026.3hPa South 2.3mph /  3.7km/h 2.3mph /  3.7km/h 97% 0.00in /  0mm WeatherDisplay:10.37 W/m2 CLR
22:31 31.5 °F /  -0.3 °C 30.7 °F /  -0.7 °C 30.31in /  1026.3hPa South 1.2mph /  1.9km/h 1.2mph /  1.9km/h 97% 0.00in /  0mm WeatherDisplay:10.37 W/m2 CLR
22:36 31.4 °F /  -0.3 °C 30.6 °F /  -0.8 °C 30.31in /  1026.3hPa East 1.2mph /  1.9km/h 1.2mph /  1.9km/h 97% 0.00in /  0mm WeatherDisplay:10.37 W/m2 CLR
22:41 31.6 °F /  -0.2 °C 30.8 °F /  -0.7 °C 30.31in /  1026.3hPa East 2.3mph /  3.7km/h 2.3mph /  3.7km/h 97% 0.00in /  0mm WeatherDisplay:10.37 W/m2 CLR
22:46 31.5 °F /  -0.3 °C 30.7 °F /  -0.7 °C 30.32in /  1026.6hPa East 1.2mph /  1.9km/h 1.2mph /  1.9km/h 97% 0.00in /  0mm WeatherDisplay:10.37 W/m2 CLR
22:52 31.6 °F /  -0.2 °C 30.8 °F /  -0.7 °C 30.32in /  1026.6hPa East 1.2mph /  1.9km/h 1.2mph /  1.9km/h 97% 0.00in /  0mm WeatherDisplay:10.37 W/m2 CLR
22:57 31.7 °F /  -0.2 °C 30.9 °F /  -0.6 °C 30.32in /  1026.6hPa East 2.3mph /  3.7km/h 2.3mph /  3.7km/h 97% 0.00in /  0mm WeatherDisplay:10.37 W/m2 CLR
23:02 31.6 °F /  -0.2 °C 30.8 °F /  -0.7 °C 30.32in /  1026.6hPa East 1.2mph /  1.9km/h 1.2mph /  1.9km/h 97% 0.00in /  0mm WeatherDisplay:10.37 W/m2 CLR
23:07 31.4 °F /  -0.3 °C 30.6 °F /  -0.8 °C 30.33in /  1027hPa East 1.2mph /  1.9km/h 1.2mph /  1.9km/h 97% 0.00in /  0mm WeatherDisplay:10.37 W/m2 CLR
23:12 31.2 °F /  -0.4 °C 30.4 °F /  -0.9 °C 30.33in /  1027hPa East 1.2mph /  1.9km/h 1.2mph /  1.9km/h 97% 0.00in /  0mm WeatherDisplay:10.37 W/m2 CLR
23:17 31.1 °F /  -0.5 °C 30.3 °F /  -0.9 °C 30.33in /  1027hPa East 2.3mph /  3.7km/h 2.3mph /  3.7km/h 97% 0.00in /  0mm WeatherDisplay:10.37 W/m2 CLR
23:22 31.0 °F /  -0.6 °C 30.2 °F /  -1 °C 30.33in /  1027hPa East 1.2mph /  1.9km/h 1.2mph /  1.9km/h 97% 0.00in /  0mm WeatherDisplay:10.37 W/m2 CLR
23:27 30.8 °F /  -0.7 °C 30.0 °F /  -1.1 °C 30.33in /  1027hPa East 2.3mph /  3.7km/h 2.3mph /  3.7km/h 97% 0.00in /  0mm WeatherDisplay:10.37 W/m2 CLR
23:32 30.6 °F /  -0.8 °C 29.9 °F /  -1.2 °C 30.33in /  1027hPa East 2.3mph /  3.7km/h 2.3mph /  3.7km/h 97% 0.00in /  0mm WeatherDisplay:10.37 W/m2 CLR
23:37 30.7 °F /  -0.7 °C 30.0 °F /  -1.1 °C 30.33in /  1027hPa East 1.2mph /  1.9km/h 1.2mph /  1.9km/h 97% 0.00in /  0mm WeatherDisplay:10.37 W/m2 CLR
23:42 30.7 °F /  -0.7 °C 30.0 °F /  -1.1 °C 30.33in /  1027hPa East 2.3mph /  3.7km/h 2.3mph /  3.7km/h 97% 0.00in /  0mm WeatherDisplay:10.37 W/m2 CLR
23:47 30.7 °F /  -0.7 °C 30.0 °F /  -1.1 °C 30.33in /  1027hPa East 2.3mph /  3.7km/h 2.3mph /  3.7km/h 97% 0.00in /  0mm WeatherDisplay:10.37 W/m2 CLR
23:52 30.8 °F /  -0.7 °C 30.0 °F /  -1.1 °C 30.33in /  1027hPa East 2.3mph /  3.7km/h 2.3mph /  3.7km/h 97% 0.00in /  0mm WeatherDisplay:10.37 W/m2 CLR
23:57 31.0 °F /  -0.6 °C 30.2 °F /  -1 °C 30.33in /  1027hPa ENE 2.0mph /  3.2km/h 2.0mph /  3.2km/h 97% 0.00in /  0mm WeatherDisplay:10.37 W/m2 CLR
VanCam Weather
Compliments of Weather Underground - 3.75 mb